DAL0426 KLAX-KSFO
Flight info
| Callsign | DAL0426 |
|---|---|
| Flight time | 0h 53m |
| Altitude | 36000 |
| Route | SUMMR2 STOKD SERFR SERFR4 |
| Aircraft | A20N/M-SDE2E3FGHIRWXY/LB1 |
Departure
| Time | 2026-04-20 23:00 |
|---|---|
| Airport | Los Angeles International Airport (KLAX) |
Arrival
| Time | 2026-04-20 23:54 |
|---|---|
| Airport | San Francisco International Airport (KSFO) |
| Time | Latitude | Longitude | Altitude | Speed | Heading |
|---|---|---|---|---|---|
| 2026-04-20 22:46 | 33.94766 | -118.40065 | 125 ft | 0 kts | 243° |
| 2026-04-20 22:52 | 33.94768 | -118.40062 | 125 ft | 1 kts | 243° |
| 2026-04-20 22:53 | 33.94771 | -118.40053 | 120 ft | 1 kts | 249° |
| 2026-04-20 22:53 | 33.94774 | -118.40044 | 121 ft | 1 kts | 256° |
| 2026-04-20 22:53 | 33.94775 | -118.40035 | 121 ft | 1 kts | 262° |
| 2026-04-20 22:53 | 33.94776 | -118.40030 | 121 ft | 1 kts | 267° |
| 2026-04-20 22:54 | 33.94776 | -118.40020 | 121 ft | 1 kts | 289° |
| 2026-04-20 22:54 | 33.94773 | -118.40013 | 121 ft | 0 kts | 321° |
| 2026-04-20 22:57 | 33.94777 | -118.40015 | 121 ft | 2 kts | 336° |
| 2026-04-20 22:57 | 33.94818 | -118.40021 | 122 ft | 8 kts | 349° |
| 2026-04-20 22:57 | 33.94850 | -118.40046 | 122 ft | 9 kts | 320° |
| 2026-04-20 22:58 | 33.94917 | -118.40071 | 123 ft | 15 kts | 8° |
| 2026-04-20 22:58 | 33.94981 | -118.40067 | 123 ft | 0 kts | 356° |
| 2026-04-20 22:59 | 33.95009 | -118.40078 | 121 ft | 9 kts | 327° |
| 2026-04-20 22:59 | 33.95021 | -118.40156 | 125 ft | 11 kts | 263° |
| 2026-04-20 22:59 | 33.95014 | -118.40234 | 124 ft | 8 kts | 263° |
| 2026-04-20 22:59 | 33.95004 | -118.40331 | 123 ft | 28 kts | 263° |
| 2026-04-20 23:00 | 33.94946 | -118.40876 | 123 ft | 104 kts | 262° |
| 2026-04-20 23:00 | 33.94824 | -118.41991 | 156 ft | 161 kts | 263° |
| 2026-04-20 23:00 | 33.94726 | -118.43392 | 706 ft | 179 kts | 265° |
| 2026-04-20 23:00 | 33.94631 | -118.45016 | 1371 ft | 202 kts | 262° |
| 2026-04-20 23:01 | 33.94458 | -118.46721 | 2050 ft | 219 kts | 263° |
| 2026-04-20 23:01 | 33.94353 | -118.48662 | 2450 ft | 245 kts | 265° |
| 2026-04-20 23:01 | 33.94251 | -118.50805 | 2865 ft | 265 kts | 263° |
| 2026-04-20 23:01 | 33.94067 | -118.53028 | 3266 ft | 269 kts | 262° |
| 2026-04-20 23:02 | 33.93883 | -118.55287 | 3659 ft | 271 kts | 262° |
| 2026-04-20 23:02 | 33.93703 | -118.57574 | 4277 ft | 277 kts | 263° |
| 2026-04-20 23:02 | 33.93523 | -118.59886 | 5263 ft | 277 kts | 263° |
| 2026-04-20 23:02 | 33.93343 | -118.62205 | 6179 ft | 279 kts | 262° |
| 2026-04-20 23:03 | 33.93160 | -118.64546 | 7064 ft | 281 kts | 262° |
| 2026-04-20 23:03 | 33.92976 | -118.66900 | 7951 ft | 283 kts | 262° |
| 2026-04-20 23:03 | 33.92793 | -118.69271 | 8812 ft | 286 kts | 262° |
| 2026-04-20 23:03 | 33.92610 | -118.71637 | 9671 ft | 288 kts | 262° |
| 2026-04-20 23:04 | 33.92421 | -118.74059 | 10396 ft | 296 kts | 262° |
| 2026-04-20 23:04 | 33.92218 | -118.76621 | 10683 ft | 319 kts | 262° |
| 2026-04-20 23:04 | 33.91999 | -118.79373 | 10975 ft | 339 kts | 262° |
| 2026-04-20 23:04 | 33.91777 | -118.82219 | 11659 ft | 344 kts | 263° |
| 2026-04-20 23:05 | 33.91738 | -118.85118 | 12455 ft | 349 kts | 270° |
| 2026-04-20 23:05 | 33.91839 | -118.88046 | 13206 ft | 353 kts | 269° |
| 2026-04-20 23:05 | 33.91933 | -118.91015 | 13942 ft | 356 kts | 269° |
| 2026-04-20 23:05 | 33.92023 | -118.94001 | 14627 ft | 359 kts | 269° |
| 2026-04-20 23:06 | 33.92083 | -118.96033 | 15086 ft | 360 kts | 269° |
| 2026-04-20 23:06 | 33.92218 | -118.99061 | 15764 ft | 365 kts | 275° |
| 2026-04-20 23:06 | 33.92791 | -119.02057 | 16423 ft | 371 kts | 286° |
| 2026-04-20 23:06 | 33.93888 | -119.04890 | 17080 ft | 378 kts | 298° |
| 2026-04-20 23:07 | 33.95280 | -119.07555 | 17718 ft | 382 kts | 299° |
| 2026-04-20 23:07 | 33.96696 | -119.10273 | 18350 ft | 385 kts | 299° |
| 2026-04-20 23:07 | 33.98119 | -119.13023 | 18920 ft | 387 kts | 299° |
| 2026-04-20 23:07 | 33.99560 | -119.15774 | 19518 ft | 390 kts | 302° |
| 2026-04-20 23:08 | 34.01266 | -119.18336 | 20085 ft | 395 kts | 310° |
| 2026-04-20 23:08 | 34.03303 | -119.20591 | 20643 ft | 400 kts | 319° |
| 2026-04-20 23:08 | 34.05572 | -119.22554 | 21207 ft | 403 kts | 322° |
| 2026-04-20 23:08 | 34.07867 | -119.24512 | 21767 ft | 405 kts | 322° |
| 2026-04-20 23:09 | 34.10168 | -119.26489 | 22299 ft | 407 kts | 322° |
| 2026-04-20 23:09 | 34.12486 | -119.28486 | 22843 ft | 410 kts | 322° |
| 2026-04-20 23:09 | 34.14810 | -119.30489 | 23384 ft | 412 kts | 322° |
| 2026-04-20 23:09 | 34.17155 | -119.32511 | 23864 ft | 415 kts | 322° |
| 2026-04-20 23:10 | 34.19504 | -119.34537 | 24339 ft | 416 kts | 322° |
| 2026-04-20 23:10 | 34.21865 | -119.36573 | 24785 ft | 417 kts | 322° |
| 2026-04-20 23:10 | 34.24205 | -119.38594 | 25212 ft | 419 kts | 322° |
| 2026-04-20 23:10 | 34.26582 | -119.40647 | 25603 ft | 420 kts | 322° |
| 2026-04-20 23:11 | 34.28960 | -119.42705 | 25988 ft | 422 kts | 322° |
| 2026-04-20 23:11 | 34.31353 | -119.44776 | 26356 ft | 423 kts | 322° |
| 2026-04-20 23:11 | 34.33750 | -119.46851 | 26731 ft | 425 kts | 322° |
| 2026-04-20 23:11 | 34.36154 | -119.48935 | 27091 ft | 426 kts | 322° |
| 2026-04-20 23:12 | 34.38573 | -119.51032 | 27443 ft | 428 kts | 322° |
| 2026-04-20 23:12 | 34.40947 | -119.53205 | 27785 ft | 428 kts | 317° |
| 2026-04-20 23:12 | 34.43109 | -119.55676 | 28123 ft | 427 kts | 311° |
| 2026-04-20 23:12 | 34.45195 | -119.58264 | 28449 ft | 429 kts | 312° |
| 2026-04-20 23:13 | 34.47268 | -119.60813 | 28743 ft | 431 kts | 312° |
| 2026-04-20 23:13 | 34.49405 | -119.63436 | 29066 ft | 433 kts | 312° |
| 2026-04-20 23:13 | 34.51493 | -119.66001 | 29383 ft | 434 kts | 312° |
| 2026-04-20 23:13 | 34.53616 | -119.68614 | 29690 ft | 435 kts | 312° |
| 2026-04-20 23:14 | 34.55742 | -119.71233 | 29988 ft | 436 kts | 312° |
| 2026-04-20 23:14 | 34.57881 | -119.73871 | 30242 ft | 438 kts | 312° |
| 2026-04-20 23:14 | 34.60022 | -119.76516 | 30477 ft | 440 kts | 311° |
| 2026-04-20 23:14 | 34.62169 | -119.79171 | 30705 ft | 442 kts | 311° |
| 2026-04-20 23:15 | 34.64331 | -119.81844 | 30955 ft | 444 kts | 311° |
| 2026-04-20 23:15 | 34.66498 | -119.84525 | 31192 ft | 445 kts | 311° |
| 2026-04-20 23:15 | 34.68662 | -119.87205 | 31520 ft | 444 kts | 311° |
| 2026-04-20 23:15 | 34.70827 | -119.89887 | 31853 ft | 443 kts | 311° |
| 2026-04-20 23:16 | 34.72987 | -119.92562 | 32164 ft | 443 kts | 312° |
| 2026-04-20 23:16 | 34.75153 | -119.95227 | 32436 ft | 443 kts | 312° |
| 2026-04-20 23:16 | 34.77312 | -119.97892 | 32753 ft | 441 kts | 311° |
| 2026-04-20 23:16 | 34.79460 | -120.00553 | 33062 ft | 440 kts | 311° |
| 2026-04-20 23:17 | 34.81606 | -120.03222 | 33305 ft | 440 kts | 311° |
| 2026-04-20 23:17 | 34.83742 | -120.05885 | 33519 ft | 440 kts | 311° |
| 2026-04-20 23:17 | 34.85886 | -120.08561 | 33769 ft | 440 kts | 311° |
| 2026-04-20 23:17 | 34.88017 | -120.11222 | 34027 ft | 439 kts | 311° |
| 2026-04-20 23:18 | 34.90144 | -120.13881 | 34260 ft | 438 kts | 311° |
| 2026-04-20 23:18 | 34.92271 | -120.16543 | 34452 ft | 438 kts | 310° |
| 2026-04-20 23:18 | 34.94393 | -120.19199 | 34659 ft | 437 kts | 310° |
| 2026-04-20 23:18 | 34.96517 | -120.21859 | 34821 ft | 437 kts | 310° |
| 2026-04-20 23:19 | 34.98641 | -120.24521 | 35008 ft | 437 kts | 310° |
| 2026-04-20 23:19 | 35.00732 | -120.27144 | 35183 ft | 436 kts | 310° |
| 2026-04-20 23:19 | 35.02847 | -120.29799 | 35329 ft | 437 kts | 310° |
| 2026-04-20 23:19 | 35.04961 | -120.32456 | 35484 ft | 436 kts | 310° |
| 2026-04-20 23:20 | 35.07075 | -120.35113 | 35644 ft | 436 kts | 310° |
| 2026-04-20 23:20 | 35.09194 | -120.37777 | 35794 ft | 436 kts | 310° |
| 2026-04-20 23:20 | 35.11384 | -120.40353 | 35958 ft | 438 kts | 313° |
| 2026-04-20 23:20 | 35.13644 | -120.42847 | 36033 ft | 438 kts | 314° |
| 2026-04-20 23:21 | 35.18180 | -120.47817 | 36045 ft | 437 kts | 313° |
| 2026-04-20 23:21 | 35.22674 | -120.52828 | 36045 ft | 437 kts | 313° |
| 2026-04-20 23:22 | 35.27153 | -120.57863 | 36046 ft | 438 kts | 313° |
| 2026-04-20 23:22 | 35.31631 | -120.62907 | 36045 ft | 437 kts | 313° |
| 2026-04-20 23:23 | 35.36110 | -120.67959 | 36048 ft | 438 kts | 313° |
| 2026-04-20 23:23 | 35.40586 | -120.73015 | 36045 ft | 437 kts | 313° |
| 2026-04-20 23:24 | 35.45058 | -120.78073 | 36044 ft | 439 kts | 313° |
| 2026-04-20 23:24 | 35.49618 | -120.82998 | 36042 ft | 441 kts | 318° |
| 2026-04-20 23:25 | 35.54544 | -120.87536 | 36045 ft | 442 kts | 318° |
| 2026-04-20 23:25 | 35.59452 | -120.92097 | 36044 ft | 442 kts | 317° |
| 2026-04-20 23:26 | 35.64370 | -120.96672 | 35991 ft | 444 kts | 317° |
| 2026-04-20 23:26 | 35.69317 | -121.01277 | 36038 ft | 449 kts | 317° |
| 2026-04-20 23:27 | 35.74338 | -121.05965 | 36037 ft | 456 kts | 317° |
| 2026-04-20 23:27 | 35.79403 | -121.10698 | 36036 ft | 463 kts | 317° |
| 2026-04-20 23:28 | 35.84575 | -121.15536 | 36028 ft | 468 kts | 317° |
| 2026-04-20 23:28 | 35.89754 | -121.20385 | 36027 ft | 468 kts | 317° |
| 2026-04-20 23:29 | 35.94802 | -121.25123 | 36022 ft | 468 kts | 317° |
| 2026-04-20 23:29 | 36.00074 | -121.30081 | 36021 ft | 468 kts | 317° |
| 2026-04-20 23:30 | 36.05256 | -121.34963 | 36015 ft | 468 kts | 317° |
| 2026-04-20 23:30 | 36.10700 | -121.39470 | 36007 ft | 473 kts | 322° |
| 2026-04-20 23:31 | 36.16236 | -121.43781 | 36003 ft | 473 kts | 322° |
| 2026-04-20 23:31 | 36.21818 | -121.48142 | 35882 ft | 469 kts | 322° |
| 2026-04-20 23:32 | 36.24540 | -121.50270 | 35459 ft | 470 kts | 322° |
| 2026-04-20 23:32 | 36.27313 | -121.52443 | 34752 ft | 474 kts | 322° |
| 2026-04-20 23:32 | 36.30111 | -121.54639 | 33836 ft | 480 kts | 322° |
| 2026-04-20 23:32 | 36.32962 | -121.56880 | 32712 ft | 488 kts | 322° |
| 2026-04-20 23:33 | 36.35852 | -121.59150 | 31669 ft | 495 kts | 322° |
| 2026-04-20 23:33 | 36.38782 | -121.61450 | 30699 ft | 500 kts | 322° |
| 2026-04-20 23:33 | 36.41734 | -121.63769 | 29761 ft | 503 kts | 322° |
| 2026-04-20 23:33 | 36.44681 | -121.66085 | 29132 ft | 498 kts | 322° |
| 2026-04-20 23:34 | 36.47571 | -121.68352 | 28951 ft | 484 kts | 322° |
| 2026-04-20 23:34 | 36.50218 | -121.70431 | 28795 ft | 471 kts | 322° |
| 2026-04-20 23:34 | 36.52940 | -121.72575 | 28469 ft | 462 kts | 321° |
| 2026-04-20 23:34 | 36.55650 | -121.74720 | 27837 ft | 460 kts | 321° |
| 2026-04-20 23:35 | 36.58347 | -121.76858 | 27273 ft | 457 kts | 321° |
| 2026-04-20 23:35 | 36.62431 | -121.80096 | 26494 ft | 450 kts | 321° |
| 2026-04-20 23:36 | 36.64780 | -121.81960 | 26013 ft | 448 kts | 321° |
| 2026-04-20 23:36 | 36.67398 | -121.84037 | 25496 ft | 445 kts | 321° |
| 2026-04-20 23:36 | 36.69949 | -121.86063 | 25003 ft | 442 kts | 320° |
| 2026-04-20 23:36 | 36.72020 | -121.87708 | 24607 ft | 439 kts | 320° |
| 2026-04-20 23:37 | 36.74500 | -121.89790 | 24137 ft | 431 kts | 315° |
| 2026-04-20 23:37 | 36.76788 | -121.92163 | 23645 ft | 426 kts | 312° |
| 2026-04-20 23:37 | 36.79046 | -121.94541 | 23103 ft | 423 kts | 312° |
| 2026-04-20 23:37 | 36.81289 | -121.96895 | 22567 ft | 420 kts | 312° |
| 2026-04-20 23:38 | 36.83518 | -121.99234 | 22009 ft | 418 kts | 312° |
| 2026-04-20 23:38 | 36.85739 | -122.01566 | 21456 ft | 415 kts | 312° |
| 2026-04-20 23:38 | 36.87942 | -122.03883 | 20924 ft | 413 kts | 312° |
| 2026-04-20 23:38 | 36.90139 | -122.06197 | 20376 ft | 411 kts | 312° |
| 2026-04-20 23:39 | 36.92315 | -122.08490 | 19872 ft | 409 kts | 312° |
| 2026-04-20 23:39 | 36.94486 | -122.10780 | 19369 ft | 407 kts | 313° |
| 2026-04-20 23:39 | 36.96646 | -122.13061 | 18924 ft | 405 kts | 313° |
| 2026-04-20 23:39 | 36.98772 | -122.15304 | 18740 ft | 395 kts | 313° |
| 2026-04-20 23:40 | 37.00844 | -122.17487 | 18624 ft | 383 kts | 312° |
| 2026-04-20 23:40 | 37.02853 | -122.19606 | 18511 ft | 371 kts | 312° |
| 2026-04-20 23:40 | 37.04800 | -122.21665 | 18236 ft | 365 kts | 312° |
| 2026-04-20 23:40 | 37.06729 | -122.23717 | 17752 ft | 363 kts | 312° |
| 2026-04-20 23:41 | 37.08649 | -122.25760 | 17270 ft | 362 kts | 312° |
| 2026-04-20 23:41 | 37.10580 | -122.27785 | 16820 ft | 362 kts | 316° |
| 2026-04-20 23:41 | 37.12739 | -122.29388 | 16457 ft | 367 kts | 332° |
| 2026-04-20 23:41 | 37.15166 | -122.30403 | 15960 ft | 372 kts | 341° |
| 2026-04-20 23:42 | 37.17667 | -122.31243 | 15539 ft | 371 kts | 341° |
| 2026-04-20 23:42 | 37.20145 | -122.32084 | 15188 ft | 368 kts | 342° |
| 2026-04-20 23:42 | 37.22606 | -122.32925 | 14809 ft | 366 kts | 341° |
| 2026-04-20 23:42 | 37.25053 | -122.33766 | 14446 ft | 363 kts | 342° |
| 2026-04-20 23:43 | 37.27479 | -122.34601 | 14073 ft | 362 kts | 342° |
| 2026-04-20 23:43 | 37.29910 | -122.35438 | 13607 ft | 362 kts | 342° |
| 2026-04-20 23:43 | 37.32345 | -122.36276 | 13187 ft | 359 kts | 343° |
| 2026-04-20 23:43 | 37.34730 | -122.37095 | 12954 ft | 351 kts | 342° |
| 2026-04-20 23:44 | 37.37058 | -122.37892 | 12790 ft | 341 kts | 342° |
| 2026-04-20 23:44 | 37.39282 | -122.38654 | 12679 ft | 330 kts | 341° |
| 2026-04-20 23:44 | 37.41461 | -122.39405 | 12598 ft | 320 kts | 342° |
| 2026-04-20 23:44 | 37.43565 | -122.40125 | 12471 ft | 305 kts | 342° |
| 2026-04-20 23:45 | 37.45553 | -122.40807 | 12222 ft | 285 kts | 341° |
| 2026-04-20 23:45 | 37.47416 | -122.41445 | 11855 ft | 271 kts | 340° |
| 2026-04-20 23:45 | 37.49240 | -122.42076 | 11130 ft | 272 kts | 338° |
| 2026-04-20 23:45 | 37.50888 | -122.43098 | 10447 ft | 261 kts | 320° |
| 2026-04-20 23:46 | 37.52597 | -122.43909 | 10046 ft | 260 kts | 342° |
| 2026-04-20 23:46 | 37.54315 | -122.44280 | 9869 ft | 241 kts | 345° |
| 2026-04-20 23:46 | 37.55896 | -122.44596 | 9714 ft | 216 kts | 342° |
| 2026-04-20 23:46 | 37.57331 | -122.44947 | 9384 ft | 208 kts | 339° |
| 2026-04-20 23:47 | 37.58727 | -122.45364 | 8963 ft | 204 kts | 337° |
| 2026-04-20 23:47 | 37.60089 | -122.45812 | 8541 ft | 201 kts | 336° |
| 2026-04-20 23:47 | 37.61429 | -122.46275 | 8121 ft | 199 kts | 335° |
| 2026-04-20 23:47 | 37.62784 | -122.46659 | 7595 ft | 204 kts | 353° |
| 2026-04-20 23:48 | 37.64123 | -122.46176 | 7234 ft | 199 kts | 39° |
| 2026-04-20 23:48 | 37.65071 | -122.44973 | 6863 ft | 191 kts | 57° |
| 2026-04-20 23:48 | 37.65893 | -122.43658 | 6467 ft | 189 kts | 60° |
| 2026-04-20 23:48 | 37.66671 | -122.42356 | 6115 ft | 186 kts | 60° |
| 2026-04-20 23:49 | 37.67459 | -122.41045 | 5740 ft | 186 kts | 59° |
| 2026-04-20 23:49 | 37.68246 | -122.39743 | 5193 ft | 193 kts | 58° |
| 2026-04-20 23:49 | 37.69067 | -122.38419 | 4801 ft | 188 kts | 57° |
| 2026-04-20 23:49 | 37.69863 | -122.37151 | 4427 ft | 182 kts | 57° |
| 2026-04-20 23:50 | 37.70648 | -122.35904 | 4052 ft | 181 kts | 58° |
| 2026-04-20 23:50 | 37.71426 | -122.34663 | 3695 ft | 179 kts | 58° |
| 2026-04-20 23:50 | 37.71941 | -122.33333 | 3302 ft | 162 kts | 96° |
| 2026-04-20 23:50 | 37.71621 | -122.32170 | 2904 ft | 130 kts | 149° |
| 2026-04-20 23:51 | 37.70880 | -122.31758 | 2808 ft | 114 kts | 179° |
| 2026-04-20 23:51 | 37.70053 | -122.31883 | 2805 ft | 121 kts | 198° |
| 2026-04-20 23:51 | 37.69549 | -122.32153 | 2809 ft | 118 kts | 204° |
| 2026-04-20 23:51 | 37.68810 | -122.32668 | 2872 ft | 123 kts | 206° |
| 2026-04-20 23:52 | 37.68054 | -122.33167 | 3010 ft | 124 kts | 207° |
| 2026-04-20 23:52 | 37.67304 | -122.33667 | 2926 ft | 120 kts | 205° |
| 2026-04-20 23:52 | 37.66578 | -122.34152 | 2625 ft | 118 kts | 204° |
| 2026-04-20 23:52 | 37.65839 | -122.34645 | 2210 ft | 121 kts | 204° |
| 2026-04-20 23:53 | 37.65090 | -122.35143 | 1832 ft | 120 kts | 206° |
| 2026-04-20 23:53 | 37.64382 | -122.35654 | 1358 ft | 128 kts | 208° |
| 2026-04-20 23:53 | 37.63548 | -122.36286 | 766 ft | 138 kts | 205° |
| 2026-04-20 23:53 | 37.62697 | -122.36796 | 236 ft | 144 kts | 208° |
| 2026-04-20 23:54 | 37.61840 | -122.37333 | 50 ft | 128 kts | 207° |
| 2026-04-20 23:54 | 37.61152 | -122.37789 | 19 ft | 67 kts | 208° |
| 2026-04-20 23:54 | 37.61056 | -122.37856 | 20 ft | 0 kts | 209° |
| 2026-04-20 23:54 | 37.61016 | -122.37883 | 19 ft | 8 kts | 208° |
| 2026-04-20 23:55 | 37.60902 | -122.37958 | 22 ft | 26 kts | 207° |
| 2026-04-20 23:55 | 37.60847 | -122.37994 | 22 ft | 4 kts | 209° |
| 2026-04-20 23:55 | 37.60824 | -122.38024 | 23 ft | 5 kts | 244° |
| 2026-04-20 23:55 | 37.60826 | -122.38072 | 22 ft | 6 kts | 288° |
| 2026-04-20 23:56 | 37.60845 | -122.38122 | 23 ft | 7 kts | 297° |
| 2026-04-20 23:56 | 37.60868 | -122.38177 | 22 ft | 7 kts | 291° |
| 2026-04-20 23:56 | 37.60876 | -122.38239 | 22 ft | 7 kts | 275° |
| 2026-04-20 23:56 | 37.60890 | -122.38303 | 24 ft | 9 kts | 296° |
| 2026-04-20 23:57 | 37.60938 | -122.38399 | 20 ft | 15 kts | 308° |
| 2026-04-20 23:57 | 37.61019 | -122.38467 | 21 ft | 10 kts | 321° |
| 2026-04-20 23:57 | 37.61032 | -122.38481 | 20 ft | 5 kts | 319° |
| 2026-04-20 23:57 | 37.61056 | -122.38524 | 19 ft | 7 kts | 300° |
| 2026-04-20 23:58 | 37.61062 | -122.38537 | 19 ft | 0 kts | 300° |